sensor_id;sensor_type;location;lat;lon;timestamp;temperature;humidity
65036;DHT22;51603;49.300;8.880;2023-04-03T00:00:50;3.00;99.90
65036;DHT22;51603;49.300;8.880;2023-04-03T00:03:17;3.00;99.90
65036;DHT22;51603;49.300;8.880;2023-04-03T00:05:42;2.90;99.90
65036;DHT22;51603;49.300;8.880;2023-04-03T00:08:08;2.90;99.90
65036;DHT22;51603;49.300;8.880;2023-04-03T00:10:35;2.90;99.90
65036;DHT22;51603;49.300;8.880;2023-04-03T00:13:01;2.90;99.90
65036;DHT22;51603;49.300;8.880;2023-04-03T00:15:27;2.80;99.90
65036;DHT22;51603;49.300;8.880;2023-04-03T00:17:52;2.70;99.90
65036;DHT22;51603;49.300;8.880;2023-04-03T00:20:18;2.60;99.90
65036;DHT22;51603;49.300;8.880;2023-04-03T00:22:43;2.60;99.90
65036;DHT22;51603;49.300;8.880;2023-04-03T00:25:09;2.50;99.90
65036;DHT22;51603;49.300;8.880;2023-04-03T00:27:37;2.40;99.90
65036;DHT22;51603;49.300;8.880;2023-04-03T00:30:03;2.30;99.90
65036;DHT22;51603;49.300;8.880;2023-04-03T00:32:29;2.30;99.90
65036;DHT22;51603;49.300;8.880;2023-04-03T00:34:55;2.30;99.90
65036;DHT22;51603;49.300;8.880;2023-04-03T00:37:20;2.30;99.90
65036;DHT22;51603;49.300;8.880;2023-04-03T00:39:46;2.30;99.90
65036;DHT22;51603;49.300;8.880;2023-04-03T00:42:12;2.20;99.90
65036;DHT22;51603;49.300;8.880;2023-04-03T00:47:06;2.30;99.90
65036;DHT22;51603;49.300;8.880;2023-04-03T00:49:33;2.30;99.90
65036;DHT22;51603;49.300;8.880;2023-04-03T00:51:59;2.30;99.90
65036;DHT22;51603;49.300;8.880;2023-04-03T00:54:26;2.30;99.90
65036;DHT22;51603;49.300;8.880;2023-04-03T00:56:53;2.30;99.90
65036;DHT22;51603;49.300;8.880;2023-04-03T00:59:23;2.30;99.90
65036;DHT22;51603;49.300;8.880;2023-04-03T01:01:51;2.30;99.90
65036;DHT22;51603;49.300;8.880;2023-04-03T01:04:35;2.40;99.90
65036;DHT22;51603;49.300;8.880;2023-04-03T01:07:08;2.30;99.90
65036;DHT22;51603;49.300;8.880;2023-04-03T01:09:34;2.30;99.90
65036;DHT22;51603;49.300;8.880;2023-04-03T01:12:33;2.20;99.90
65036;DHT22;51603;49.300;8.880;2023-04-03T01:15:03;2.20;99.90
65036;DHT22;51603;49.300;8.880;2023-04-03T01:23:16;2.10;99.90
65036;DHT22;51603;49.300;8.880;2023-04-03T01:25:53;2.00;99.90
65036;DHT22;51603;49.300;8.880;2023-04-03T01:28:28;1.90;99.90
65036;DHT22;51603;49.300;8.880;2023-04-03T01:33:49;1.80;99.90
65036;DHT22;51603;49.300;8.880;2023-04-03T01:36:20;1.80;99.90
65036;DHT22;51603;49.300;8.880;2023-04-03T01:38:47;1.80;99.90
65036;DHT22;51603;49.300;8.880;2023-04-03T01:41:13;1.80;99.90
65036;DHT22;51603;49.300;8.880;2023-04-03T01:43:38;1.80;99.90
65036;DHT22;51603;49.300;8.880;2023-04-03T01:46:04;1.80;99.90
65036;DHT22;51603;49.300;8.880;2023-04-03T01:48:30;1.80;99.90
65036;DHT22;51603;49.300;8.880;2023-04-03T01:50:56;1.80;99.90
65036;DHT22;51603;49.300;8.880;2023-04-03T01:53:21;1.80;99.90
65036;DHT22;51603;49.300;8.880;2023-04-03T01:55:47;1.90;99.90
65036;DHT22;51603;49.300;8.880;2023-04-03T01:58:13;1.90;99.90
65036;DHT22;51603;49.300;8.880;2023-04-03T02:00:39;1.90;99.90
65036;DHT22;51603;49.300;8.880;2023-04-03T02:03:04;2.00;99.90
65036;DHT22;51603;49.300;8.880;2023-04-03T02:05:30;2.10;99.90
65036;DHT22;51603;49.300;8.880;2023-04-03T02:07:56;2.10;99.90
65036;DHT22;51603;49.300;8.880;2023-04-03T02:10:21;2.20;99.90
65036;DHT22;51603;49.300;8.880;2023-04-03T02:12:47;2.30;99.90
65036;DHT22;51603;49.300;8.880;2023-04-03T02:15:12;2.30;99.90
65036;DHT22;51603;49.300;8.880;2023-04-03T02:17:38;2.40;99.90
65036;DHT22;51603;49.300;8.880;2023-04-03T02:20:04;2.40;99.90
65036;DHT22;51603;49.300;8.880;2023-04-03T02:22:30;2.40;99.90
65036;DHT22;51603;49.300;8.880;2023-04-03T02:24:55;2.50;99.90
65036;DHT22;51603;49.300;8.880;2023-04-03T02:27:21;2.50;99.90
65036;DHT22;51603;49.300;8.880;2023-04-03T02:29:46;2.50;99.90
65036;DHT22;51603;49.300;8.880;2023-04-03T02:32:12;2.60;99.90
65036;DHT22;51603;49.300;8.880;2023-04-03T02:34:37;2.60;99.90
65036;DHT22;51603;49.300;8.880;2023-04-03T02:37:03;2.60;99.90
65036;DHT22;51603;49.300;8.880;2023-04-03T02:39:28;2.70;99.90
65036;DHT22;51603;49.300;8.880;2023-04-03T02:41:54;2.70;99.90
65036;DHT22;51603;49.300;8.880;2023-04-03T02:44:19;2.70;99.90
65036;DHT22;51603;49.300;8.880;2023-04-03T02:46:45;2.70;99.90
65036;DHT22;51603;49.300;8.880;2023-04-03T02:49:11;2.70;99.90
65036;DHT22;51603;49.300;8.880;2023-04-03T02:51:36;2.80;99.90
65036;DHT22;51603;49.300;8.880;2023-04-03T02:54:02;2.80;99.90
65036;DHT22;51603;49.300;8.880;2023-04-03T02:56:27;2.80;99.90
65036;DHT22;51603;49.300;8.880;2023-04-03T02:58:53;2.80;99.90
65036;DHT22;51603;49.300;8.880;2023-04-03T03:01:19;2.80;99.90
65036;DHT22;51603;49.300;8.880;2023-04-03T03:03:44;2.80;99.90
65036;DHT22;51603;49.300;8.880;2023-04-03T03:06:12;2.90;99.90
65036;DHT22;51603;49.300;8.880;2023-04-03T03:08:39;2.90;99.90
65036;DHT22;51603;49.300;8.880;2023-04-03T03:11:05;2.90;99.90
65036;DHT22;51603;49.300;8.880;2023-04-03T03:13:31;2.90;99.90
65036;DHT22;51603;49.300;8.880;2023-04-03T03:15:57;2.90;99.90
65036;DHT22;51603;49.300;8.880;2023-04-03T03:18:22;2.90;99.90
65036;DHT22;51603;49.300;8.880;2023-04-03T03:20:56;2.80;99.90
65036;DHT22;51603;49.300;8.880;2023-04-03T03:23:23;2.80;99.90
65036;DHT22;51603;49.300;8.880;2023-04-03T03:25:49;2.70;99.90
65036;DHT22;51603;49.300;8.880;2023-04-03T03:28:19;2.70;99.90
65036;DHT22;51603;49.300;8.880;2023-04-03T03:30:45;2.70;99.90
65036;DHT22;51603;49.300;8.880;2023-04-03T03:33:10;2.60;99.90
65036;DHT22;51603;49.300;8.880;2023-04-03T03:35:36;2.50;99.90
65036;DHT22;51603;49.300;8.880;2023-04-03T03:38:02;2.40;99.90
65036;DHT22;51603;49.300;8.880;2023-04-03T03:40:27;2.40;99.90
65036;DHT22;51603;49.300;8.880;2023-04-03T03:42:53;2.30;99.90
65036;DHT22;51603;49.300;8.880;2023-04-03T03:45:18;2.30;99.90
65036;DHT22;51603;49.300;8.880;2023-04-03T03:47:44;2.30;99.90
65036;DHT22;51603;49.300;8.880;2023-04-03T03:50:10;2.20;99.90
65036;DHT22;51603;49.300;8.880;2023-04-03T03:52:36;2.20;99.90
65036;DHT22;51603;49.300;8.880;2023-04-03T03:55:02;2.10;99.90
65036;DHT22;51603;49.300;8.880;2023-04-03T03:57:27;2.10;99.90
65036;DHT22;51603;49.300;8.880;2023-04-03T03:59:54;2.10;99.90
65036;DHT22;51603;49.300;8.880;2023-04-03T04:02:19;2.10;99.90
65036;DHT22;51603;49.300;8.880;2023-04-03T04:04:45;2.00;99.90
65036;DHT22;51603;49.300;8.880;2023-04-03T04:07:11;2.00;99.90
65036;DHT22;51603;49.300;8.880;2023-04-03T04:09:36;2.00;99.90
65036;DHT22;51603;49.300;8.880;2023-04-03T04:12:02;1.90;99.90
65036;DHT22;51603;49.300;8.880;2023-04-03T04:14:28;1.90;99.90
65036;DHT22;51603;49.300;8.880;2023-04-03T04:16:53;1.90;99.90
65036;DHT22;51603;49.300;8.880;2023-04-03T04:19:19;1.90;99.90
65036;DHT22;51603;49.300;8.880;2023-04-03T04:21:44;1.80;99.90
65036;DHT22;51603;49.300;8.880;2023-04-03T04:24:11;1.70;99.90
65036;DHT22;51603;49.300;8.880;2023-04-03T04:26:36;1.70;99.90
65036;DHT22;51603;49.300;8.880;2023-04-03T04:29:02;1.70;99.90
65036;DHT22;51603;49.300;8.880;2023-04-03T04:31:27;1.60;99.90
65036;DHT22;51603;49.300;8.880;2023-04-03T04:33:53;1.60;99.90
65036;DHT22;51603;49.300;8.880;2023-04-03T04:36:19;1.60;99.90
65036;DHT22;51603;49.300;8.880;2023-04-03T04:38:45;1.50;99.90
65036;DHT22;51603;49.300;8.880;2023-04-03T04:41:10;1.60;99.90
65036;DHT22;51603;49.300;8.880;2023-04-03T04:43:36;1.60;99.90
65036;DHT22;51603;49.300;8.880;2023-04-03T04:46:09;1.50;99.90
65036;DHT22;51603;49.300;8.880;2023-04-03T04:48:37;1.50;99.90
65036;DHT22;51603;49.300;8.880;2023-04-03T04:51:03;1.50;99.90
65036;DHT22;51603;49.300;8.880;2023-04-03T04:53:28;1.50;99.90
65036;DHT22;51603;49.300;8.880;2023-04-03T04:55:54;1.50;99.90
65036;DHT22;51603;49.300;8.880;2023-04-03T04:58:20;1.50;99.90
65036;DHT22;51603;49.300;8.880;2023-04-03T05:00:46;1.50;99.90
65036;DHT22;51603;49.300;8.880;2023-04-03T05:03:11;1.40;99.90
65036;DHT22;51603;49.300;8.880;2023-04-03T05:05:37;1.40;99.90
65036;DHT22;51603;49.300;8.880;2023-04-03T05:08:04;1.40;99.90
65036;DHT22;51603;49.300;8.880;2023-04-03T05:10:30;1.40;99.90
65036;DHT22;51603;49.300;8.880;2023-04-03T05:12:56;1.40;99.90
65036;DHT22;51603;49.300;8.880;2023-04-03T05:15:22;1.40;99.90
65036;DHT22;51603;49.300;8.880;2023-04-03T05:17:47;1.40;99.90
65036;DHT22;51603;49.300;8.880;2023-04-03T05:20:13;1.40;99.90
65036;DHT22;51603;49.300;8.880;2023-04-03T05:22:39;1.40;99.90
65036;DHT22;51603;49.300;8.880;2023-04-03T05:25:05;1.40;99.90
65036;DHT22;51603;49.300;8.880;2023-04-03T05:27:31;1.40;99.90
65036;DHT22;51603;49.300;8.880;2023-04-03T05:29:57;1.40;99.90
65036;DHT22;51603;49.300;8.880;2023-04-03T05:32:23;1.30;99.90
65036;DHT22;51603;49.300;8.880;2023-04-03T05:34:50;1.40;99.90
65036;DHT22;51603;49.300;8.880;2023-04-03T05:37:17;1.40;99.90
65036;DHT22;51603;49.300;8.880;2023-04-03T05:39:42;1.40;99.90
65036;DHT22;51603;49.300;8.880;2023-04-03T05:42:08;1.40;99.90
65036;DHT22;51603;49.300;8.880;2023-04-03T05:44:33;1.40;99.90
65036;DHT22;51603;49.300;8.880;2023-04-03T05:46:59;1.40;99.90
65036;DHT22;51603;49.300;8.880;2023-04-03T05:49:25;1.50;99.90
65036;DHT22;51603;49.300;8.880;2023-04-03T05:51:51;1.50;99.90
65036;DHT22;51603;49.300;8.880;2023-04-03T05:54:27;1.60;99.90
65036;DHT22;51603;49.300;8.880;2023-04-03T05:56:53;1.60;99.90
65036;DHT22;51603;49.300;8.880;2023-04-03T05:59:19;1.70;99.90
65036;DHT22;51603;49.300;8.880;2023-04-03T06:01:45;1.70;99.90
65036;DHT22;51603;49.300;8.880;2023-04-03T06:04:12;1.70;99.90
65036;DHT22;51603;49.300;8.880;2023-04-03T06:09:15;1.70;99.90
65036;DHT22;51603;49.300;8.880;2023-04-03T06:11:41;1.70;99.90
65036;DHT22;51603;49.300;8.880;2023-04-03T06:14:08;1.80;99.90
65036;DHT22;51603;49.300;8.880;2023-04-03T06:16:34;1.90;99.90
65036;DHT22;51603;49.300;8.880;2023-04-03T06:19:00;1.90;99.90
65036;DHT22;51603;49.300;8.880;2023-04-03T06:21:26;1.90;99.90
65036;DHT22;51603;49.300;8.880;2023-04-03T06:23:52;2.00;99.90
65036;DHT22;51603;49.300;8.880;2023-04-03T06:26:17;2.00;99.90
65036;DHT22;51603;49.300;8.880;2023-04-03T06:28:43;2.10;99.90
65036;DHT22;51603;49.300;8.880;2023-04-03T06:31:09;2.20;99.90
65036;DHT22;51603;49.300;8.880;2023-04-03T06:33:34;2.40;99.90
65036;DHT22;51603;49.300;8.880;2023-04-03T06:36:03;2.50;99.90
65036;DHT22;51603;49.300;8.880;2023-04-03T06:38:29;2.70;99.90
65036;DHT22;51603;49.300;8.880;2023-04-03T06:40:55;2.80;99.90
65036;DHT22;51603;49.300;8.880;2023-04-03T06:43:21;2.90;99.90
65036;DHT22;51603;49.300;8.880;2023-04-03T06:45:47;3.00;99.90
65036;DHT22;51603;49.300;8.880;2023-04-03T06:48:13;3.20;99.90
65036;DHT22;51603;49.300;8.880;2023-04-03T06:50:39;3.30;99.90
65036;DHT22;51603;49.300;8.880;2023-04-03T06:53:05;3.50;99.90
65036;DHT22;51603;49.300;8.880;2023-04-03T06:55:31;3.60;99.90
65036;DHT22;51603;49.300;8.880;2023-04-03T06:57:57;3.80;99.90
65036;DHT22;51603;49.300;8.880;2023-04-03T07:00:22;3.90;99.90
65036;DHT22;51603;49.300;8.880;2023-04-03T07:02:48;4.10;99.90
65036;DHT22;51603;49.300;8.880;2023-04-03T07:05:13;4.10;99.90
65036;DHT22;51603;49.300;8.880;2023-04-03T07:07:39;4.20;99.90
65036;DHT22;51603;49.300;8.880;2023-04-03T07:10:06;4.30;99.90
65036;DHT22;51603;49.300;8.880;2023-04-03T07:12:32;4.40;99.90
65036;DHT22;51603;49.300;8.880;2023-04-03T07:14:58;4.50;99.90
65036;DHT22;51603;49.300;8.880;2023-04-03T07:17:24;4.70;99.90
65036;DHT22;51603;49.300;8.880;2023-04-03T07:19:51;4.80;99.90
65036;DHT22;51603;49.300;8.880;2023-04-03T07:22:16;4.80;99.90
65036;DHT22;51603;49.300;8.880;2023-04-03T07:24:42;5.00;99.90
65036;DHT22;51603;49.300;8.880;2023-04-03T07:27:08;5.10;99.90
65036;DHT22;51603;49.300;8.880;2023-04-03T07:29:34;5.30;99.90
65036;DHT22;51603;49.300;8.880;2023-04-03T07:32:00;5.40;99.90
65036;DHT22;51603;49.300;8.880;2023-04-03T07:34:26;5.50;99.90
65036;DHT22;51603;49.300;8.880;2023-04-03T07:36:51;5.50;99.90
65036;DHT22;51603;49.300;8.880;2023-04-03T07:39:17;5.50;99.90
65036;DHT22;51603;49.300;8.880;2023-04-03T07:41:42;5.60;99.90
65036;DHT22;51603;49.300;8.880;2023-04-03T07:44:08;5.70;99.90
65036;DHT22;51603;49.300;8.880;2023-04-03T07:46:35;5.80;99.90
65036;DHT22;51603;49.300;8.880;2023-04-03T07:49:01;5.80;99.90
65036;DHT22;51603;49.300;8.880;2023-04-03T07:51:26;5.90;99.90
65036;DHT22;51603;49.300;8.880;2023-04-03T07:53:53;6.00;99.90
65036;DHT22;51603;49.300;8.880;2023-04-03T07:56:19;6.00;99.90
65036;DHT22;51603;49.300;8.880;2023-04-03T07:58:46;6.10;99.90
65036;DHT22;51603;49.300;8.880;2023-04-03T08:01:11;6.20;99.90
65036;DHT22;51603;49.300;8.880;2023-04-03T08:03:38;6.30;99.90
65036;DHT22;51603;49.300;8.880;2023-04-03T08:06:06;6.60;99.90
65036;DHT22;51603;49.300;8.880;2023-04-03T08:08:32;6.70;99.90
65036;DHT22;51603;49.300;8.880;2023-04-03T08:11:00;6.80;99.70
65036;DHT22;51603;49.300;8.880;2023-04-03T08:13:28;6.80;99.90
65036;DHT22;51603;49.300;8.880;2023-04-03T08:15:53;7.10;99.10
65036;DHT22;51603;49.300;8.880;2023-04-03T08:18:19;7.10;98.40
65036;DHT22;51603;49.300;8.880;2023-04-03T08:20:47;7.00;96.60
65036;DHT22;51603;49.300;8.880;2023-04-03T08:23:12;7.10;96.70
65036;DHT22;51603;49.300;8.880;2023-04-03T08:25:40;7.20;97.60
65036;DHT22;51603;49.300;8.880;2023-04-03T08:28:07;7.20;96.70
65036;DHT22;51603;49.300;8.880;2023-04-03T08:30:32;7.10;95.80
65036;DHT22;51603;49.300;8.880;2023-04-03T08:33:01;7.20;95.50
65036;DHT22;51603;49.300;8.880;2023-04-03T08:35:27;7.10;96.30
65036;DHT22;51603;49.300;8.880;2023-04-03T08:37:53;7.30;95.40
65036;DHT22;51603;49.300;8.880;2023-04-03T08:40:18;7.30;93.90
65036;DHT22;51603;49.300;8.880;2023-04-03T08:48:22;6.80;94.30
65036;DHT22;51603;49.300;8.880;2023-04-03T08:50:53;7.00;95.20
65036;DHT22;51603;49.300;8.880;2023-04-03T08:53:27;7.20;93.30
65036;DHT22;51603;49.300;8.880;2023-04-03T08:55:55;7.50;94.60
65036;DHT22;51603;49.300;8.880;2023-04-03T08:58:26;7.70;92.60
65036;DHT22;51603;49.300;8.880;2023-04-03T09:01:21;7.80;90.90
65036;DHT22;51603;49.300;8.880;2023-04-03T09:03:48;8.00;87.50
65036;DHT22;51603;49.300;8.880;2023-04-03T09:06:27;8.20;89.20
65036;DHT22;51603;49.300;8.880;2023-04-03T09:09:22;8.30;88.70
65036;DHT22;51603;49.300;8.880;2023-04-03T09:14:59;8.50;81.80
65036;DHT22;51603;49.300;8.880;2023-04-03T09:22:32;8.60;80.60
65036;DHT22;51603;49.300;8.880;2023-04-03T09:25:10;8.60;79.80
65036;DHT22;51603;49.300;8.880;2023-04-03T09:27:37;8.60;79.70
65036;DHT22;51603;49.300;8.880;2023-04-03T09:30:03;8.70;76.30
65036;DHT22;51603;49.300;8.880;2023-04-03T09:32:34;8.80;75.70
65036;DHT22;51603;49.300;8.880;2023-04-03T09:37:52;8.80;78.40
65036;DHT22;51603;49.300;8.880;2023-04-03T09:40:40;9.00;76.90
65036;DHT22;51603;49.300;8.880;2023-04-03T09:43:20;8.90;73.40
65036;DHT22;51603;49.300;8.880;2023-04-03T09:45:47;9.00;76.20
65036;DHT22;51603;49.300;8.880;2023-04-03T09:48:15;9.10;75.60
65036;DHT22;51603;49.300;8.880;2023-04-03T09:55:59;8.70;72.70
65036;DHT22;51603;49.300;8.880;2023-04-03T09:58:35;8.70;74.70
65036;DHT22;51603;49.300;8.880;2023-04-03T10:01:02;9.10;78.00
65036;DHT22;51603;49.300;8.880;2023-04-03T10:03:31;9.20;71.40
65036;DHT22;51603;49.300;8.880;2023-04-03T10:05:58;9.20;70.40
65036;DHT22;51603;49.300;8.880;2023-04-03T10:08:28;8.80;69.60
65036;DHT22;51603;49.300;8.880;2023-04-03T10:11:23;8.60;73.20
65036;DHT22;51603;49.300;8.880;2023-04-03T10:13:58;8.40;71.40
65036;DHT22;51603;49.300;8.880;2023-04-03T10:16:36;8.10;71.80
65036;DHT22;51603;49.300;8.880;2023-04-03T10:19:41;8.00;75.80
65036;DHT22;51603;49.300;8.880;2023-04-03T10:22:19;7.90;75.50
65036;DHT22;51603;49.300;8.880;2023-04-03T10:24:58;7.70;73.30
65036;DHT22;51603;49.300;8.880;2023-04-03T10:27:48;7.60;74.90
65036;DHT22;51603;49.300;8.880;2023-04-03T10:30:40;7.50;75.60
65036;DHT22;51603;49.300;8.880;2023-04-03T10:41:04;8.00;82.00
65036;DHT22;51603;49.300;8.880;2023-04-03T10:51:45;8.40;76.90
65036;DHT22;51603;49.300;8.880;2023-04-03T10:56:51;8.60;75.30
65036;DHT22;51603;49.300;8.880;2023-04-03T10:59:28;8.70;70.00
65036;DHT22;51603;49.300;8.880;2023-04-03T11:01:59;8.70;71.70
65036;DHT22;51603;49.300;8.880;2023-04-03T11:04:29;8.80;70.90
65036;DHT22;51603;49.300;8.880;2023-04-03T11:07:03;8.80;69.00
65036;DHT22;51603;49.300;8.880;2023-04-03T11:09:37;8.90;68.90
65036;DHT22;51603;49.300;8.880;2023-04-03T11:12:14;8.70;64.20
65036;DHT22;51603;49.300;8.880;2023-04-03T11:14:41;8.80;70.10
65036;DHT22;51603;49.300;8.880;2023-04-03T11:17:50;8.90;66.90
65036;DHT22;51603;49.300;8.880;2023-04-03T11:20:01;8.80;68.40
65036;DHT22;51603;49.300;8.880;2023-04-03T11:22:32;8.70;68.60
65036;DHT22;51603;49.300;8.880;2023-04-03T11:25:04;8.60;70.10
65036;DHT22;51603;49.300;8.880;2023-04-03T11:27:59;8.50;69.00
65036;DHT22;51603;49.300;8.880;2023-04-03T11:30:38;8.30;67.50
65036;DHT22;51603;49.300;8.880;2023-04-03T11:35:45;8.20;70.60
65036;DHT22;51603;49.300;8.880;2023-04-03T11:38:25;8.20;74.00
65036;DHT22;51603;49.300;8.880;2023-04-03T11:40:52;8.40;73.30
65036;DHT22;51603;49.300;8.880;2023-04-03T11:43:25;8.40;71.70
65036;DHT22;51603;49.300;8.880;2023-04-03T11:45:57;8.50;69.30
65036;DHT22;51603;49.300;8.880;2023-04-03T11:50:54;8.40;67.40
65036;DHT22;51603;49.300;8.880;2023-04-03T11:53:30;8.50;72.10
65036;DHT22;51603;49.300;8.880;2023-04-03T11:56:26;8.50;71.20
65036;DHT22;51603;49.300;8.880;2023-04-03T12:01:55;8.50;71.90
65036;DHT22;51603;49.300;8.880;2023-04-03T12:04:26;8.70;69.10
65036;DHT22;51603;49.300;8.880;2023-04-03T12:07:11;9.10;69.90
65036;DHT22;51603;49.300;8.880;2023-04-03T12:14:53;8.90;69.30
65036;DHT22;51603;49.300;8.880;2023-04-03T12:17:22;8.80;70.80
65036;DHT22;51603;49.300;8.880;2023-04-03T12:19:49;8.50;67.30
65036;DHT22;51603;49.300;8.880;2023-04-03T12:22:17;8.30;68.60
65036;DHT22;51603;49.300;8.880;2023-04-03T12:24:48;8.10;73.10
65036;DHT22;51603;49.300;8.880;2023-04-03T12:27:33;8.00;73.20
65036;DHT22;51603;49.300;8.880;2023-04-03T12:32:47;8.00;72.20
65036;DHT22;51603;49.300;8.880;2023-04-03T12:53:50;8.40;74.20
65036;DHT22;51603;49.300;8.880;2023-04-03T12:56:28;8.40;68.40
65036;DHT22;51603;49.300;8.880;2023-04-03T12:58:56;8.50;66.80
65036;DHT22;51603;49.300;8.880;2023-04-03T13:01:37;8.60;66.50
65036;DHT22;51603;49.300;8.880;2023-04-03T13:04:03;8.70;65.80
65036;DHT22;51603;49.300;8.880;2023-04-03T13:06:38;8.60;64.90
65036;DHT22;51603;49.300;8.880;2023-04-03T13:09:04;8.60;64.20
65036;DHT22;51603;49.300;8.880;2023-04-03T13:11:35;8.50;64.50
65036;DHT22;51603;49.300;8.880;2023-04-03T13:14:05;8.50;66.10
65036;DHT22;51603;49.300;8.880;2023-04-03T13:16:39;8.50;65.30
65036;DHT22;51603;49.300;8.880;2023-04-03T13:19:15;8.60;68.40
65036;DHT22;51603;49.300;8.880;2023-04-03T13:21:41;8.70;66.60
65036;DHT22;51603;49.300;8.880;2023-04-03T13:24:09;8.70;64.10
65036;DHT22;51603;49.300;8.880;2023-04-03T13:26:36;8.60;60.20
65036;DHT22;51603;49.300;8.880;2023-04-03T13:29:07;8.50;63.80
65036;DHT22;51603;49.300;8.880;2023-04-03T13:31:36;8.40;61.30
65036;DHT22;51603;49.300;8.880;2023-04-03T13:34:17;8.40;59.50
65036;DHT22;51603;49.300;8.880;2023-04-03T13:36:46;8.40;61.50
65036;DHT22;51603;49.300;8.880;2023-04-03T13:39:34;8.50;60.00
65036;DHT22;51603;49.300;8.880;2023-04-03T13:42:02;9.10;61.10
65036;DHT22;51603;49.300;8.880;2023-04-03T13:44:39;9.70;63.30
65036;DHT22;51603;49.300;8.880;2023-04-03T13:49:39;9.90;58.10
65036;DHT22;51603;49.300;8.880;2023-04-03T13:52:45;9.90;56.20
65036;DHT22;51603;49.300;8.880;2023-04-03T13:57:51;9.80;57.60
65036;DHT22;51603;49.300;8.880;2023-04-03T14:00:49;10.10;55.20
65036;DHT22;51603;49.300;8.880;2023-04-03T14:03:37;10.40;54.20
65036;DHT22;51603;49.300;8.880;2023-04-03T14:06:08;10.70;52.80
65036;DHT22;51603;49.300;8.880;2023-04-03T14:08:35;11.10;56.70
65036;DHT22;51603;49.300;8.880;2023-04-03T14:11:01;11.10;52.20
65036;DHT22;51603;49.300;8.880;2023-04-03T14:13:30;10.80;52.00
65036;DHT22;51603;49.300;8.880;2023-04-03T14:15:56;10.60;51.30
65036;DHT22;51603;49.300;8.880;2023-04-03T14:18:21;10.60;52.10
65036;DHT22;51603;49.300;8.880;2023-04-03T14:20:48;10.80;53.40
65036;DHT22;51603;49.300;8.880;2023-04-03T14:23:15;11.10;55.40
65036;DHT22;51603;49.300;8.880;2023-04-03T14:25:40;11.30;53.10
65036;DHT22;51603;49.300;8.880;2023-04-03T14:28:16;11.50;52.60
65036;DHT22;51603;49.300;8.880;2023-04-03T14:30:42;11.30;50.70
65036;DHT22;51603;49.300;8.880;2023-04-03T14:33:12;10.60;45.80
65036;DHT22;51603;49.300;8.880;2023-04-03T14:35:38;10.20;48.30
65036;DHT22;51603;49.300;8.880;2023-04-03T14:38:30;10.30;48.80
65036;DHT22;51603;49.300;8.880;2023-04-03T14:40:56;10.50;48.90
65036;DHT22;51603;49.300;8.880;2023-04-03T14:43:22;10.80;49.30
65036;DHT22;51603;49.300;8.880;2023-04-03T14:45:48;11.10;49.30
65036;DHT22;51603;49.300;8.880;2023-04-03T14:48:23;11.10;46.70
65036;DHT22;51603;49.300;8.880;2023-04-03T14:50:50;11.10;46.30
65036;DHT22;51603;49.300;8.880;2023-04-03T14:53:17;11.00;47.00
65036;DHT22;51603;49.300;8.880;2023-04-03T14:55:47;10.70;45.60
65036;DHT22;51603;49.300;8.880;2023-04-03T14:58:17;10.70;47.80
65036;DHT22;51603;49.300;8.880;2023-04-03T15:00:44;11.00;49.80
65036;DHT22;51603;49.300;8.880;2023-04-03T15:03:18;11.10;48.20
65036;DHT22;51603;49.300;8.880;2023-04-03T15:05:45;11.00;48.40
65036;DHT22;51603;49.300;8.880;2023-04-03T15:08:25;10.60;47.50
65036;DHT22;51603;49.300;8.880;2023-04-03T15:10:52;10.40;46.40
65036;DHT22;51603;49.300;8.880;2023-04-03T15:13:21;10.60;48.40
65036;DHT22;51603;49.300;8.880;2023-04-03T15:15:50;10.70;45.50
65036;DHT22;51603;49.300;8.880;2023-04-03T15:18:25;10.70;46.50
65036;DHT22;51603;49.300;8.880;2023-04-03T15:20:52;11.00;47.70
65036;DHT22;51603;49.300;8.880;2023-04-03T15:23:17;11.10;46.30
65036;DHT22;51603;49.300;8.880;2023-04-03T15:25:45;11.20;48.30
65036;DHT22;51603;49.300;8.880;2023-04-03T15:28:18;11.40;47.40
65036;DHT22;51603;49.300;8.880;2023-04-03T15:30:45;11.50;44.90
65036;DHT22;51603;49.300;8.880;2023-04-03T15:33:10;11.40;44.70
65036;DHT22;51603;49.300;8.880;2023-04-03T15:35:36;11.20;43.80
65036;DHT22;51603;49.300;8.880;2023-04-03T15:38:01;11.20;45.70
65036;DHT22;51603;49.300;8.880;2023-04-03T15:40:27;11.20;45.80
65036;DHT22;51603;49.300;8.880;2023-04-03T15:42:53;11.30;44.70
65036;DHT22;51603;49.300;8.880;2023-04-03T15:45:19;11.30;44.40
65036;DHT22;51603;49.300;8.880;2023-04-03T15:47:44;11.20;44.30
65036;DHT22;51603;49.300;8.880;2023-04-03T15:50:10;11.30;47.60
65036;DHT22;51603;49.300;8.880;2023-04-03T15:52:36;11.40;47.00
65036;DHT22;51603;49.300;8.880;2023-04-03T15:55:01;11.50;45.60
65036;DHT22;51603;49.300;8.880;2023-04-03T15:57:27;11.30;45.30
65036;DHT22;51603;49.300;8.880;2023-04-03T15:59:53;11.40;47.00
65036;DHT22;51603;49.300;8.880;2023-04-03T16:02:19;11.30;46.90
65036;DHT22;51603;49.300;8.880;2023-04-03T16:04:45;11.10;43.60
65036;DHT22;51603;49.300;8.880;2023-04-03T16:07:10;10.90;44.10
65036;DHT22;51603;49.300;8.880;2023-04-03T16:09:36;11.00;45.60
65036;DHT22;51603;49.300;8.880;2023-04-03T16:12:02;11.10;44.60
65036;DHT22;51603;49.300;8.880;2023-04-03T16:14:28;11.00;45.60
65036;DHT22;51603;49.300;8.880;2023-04-03T16:16:56;11.10;44.60
65036;DHT22;51603;49.300;8.880;2023-04-03T16:19:22;11.00;43.90
65036;DHT22;51603;49.300;8.880;2023-04-03T16:21:48;11.10;45.40
65036;DHT22;51603;49.300;8.880;2023-04-03T16:24:13;11.10;43.20
65036;DHT22;51603;49.300;8.880;2023-04-03T16:26:39;10.90;42.90
65036;DHT22;51603;49.300;8.880;2023-04-03T16:29:04;11.00;45.70
65036;DHT22;51603;49.300;8.880;2023-04-03T16:31:32;11.10;43.50
65036;DHT22;51603;49.300;8.880;2023-04-03T16:33:58;11.10;42.30
65036;DHT22;51603;49.300;8.880;2023-04-03T16:36:24;11.10;42.70
65036;DHT22;51603;49.300;8.880;2023-04-03T16:38:50;10.90;41.50
65036;DHT22;51603;49.300;8.880;2023-04-03T16:41:16;10.80;42.10
65036;DHT22;51603;49.300;8.880;2023-04-03T16:43:42;10.50;40.30
65036;DHT22;51603;49.300;8.880;2023-04-03T16:46:07;10.40;42.40
65036;DHT22;51603;49.300;8.880;2023-04-03T16:48:33;10.50;44.50
65036;DHT22;51603;49.300;8.880;2023-04-03T16:50:58;10.50;43.70
65036;DHT22;51603;49.300;8.880;2023-04-03T16:53:25;10.50;43.90
65036;DHT22;51603;49.300;8.880;2023-04-03T16:55:51;10.40;44.60
65036;DHT22;51603;49.300;8.880;2023-04-03T16:58:16;10.30;43.60
65036;DHT22;51603;49.300;8.880;2023-04-03T17:00:42;10.10;44.70
65036;DHT22;51603;49.300;8.880;2023-04-03T17:03:08;10.00;45.60
65036;DHT22;51603;49.300;8.880;2023-04-03T17:05:35;9.90;47.10
65036;DHT22;51603;49.300;8.880;2023-04-03T17:08:01;9.80;47.50
65036;DHT22;51603;49.300;8.880;2023-04-03T17:10:27;9.70;47.40
65036;DHT22;51603;49.300;8.880;2023-04-03T17:12:53;9.70;48.30
65036;DHT22;51603;49.300;8.880;2023-04-03T17:15:18;9.50;47.30
65036;DHT22;51603;49.300;8.880;2023-04-03T17:17:45;9.10;47.70
65036;DHT22;51603;49.300;8.880;2023-04-03T17:20:11;8.80;47.50
65036;DHT22;51603;49.300;8.880;2023-04-03T17:22:37;8.80;47.80
65036;DHT22;51603;49.300;8.880;2023-04-03T17:25:03;9.10;47.90